createdAt,value
2022-11-05T00:01:13.996Z,65.55
2022-11-05T00:03:59.360Z,65.57
2022-11-05T00:09:29.881Z,59.78
2022-11-05T00:12:21.603Z,57.78
2022-11-05T00:15:06.928Z,55.90
2022-11-05T00:17:33.647Z,64.10
2022-11-05T00:20:00.367Z,57.38
2022-11-05T00:22:46.315Z,56.60
2022-11-05T00:25:19.489Z,57.42
2022-11-05T00:27:51.576Z,59.65
2022-11-05T00:30:23.571Z,52.00
2022-11-05T00:32:51.561Z,54.15
2022-11-05T00:35:20.280Z,58.67
2022-11-05T00:37:50.011Z,60.38
2022-11-05T00:40:17.428Z,63.20
2022-11-05T00:43:03.164Z,58.08
2022-11-05T00:45:31.280Z,58.97
2022-11-05T00:48:16.611Z,69.72
2022-11-05T00:53:10.337Z,72.13
2022-11-05T00:55:40.900Z,75.72
2022-11-05T00:58:12.380Z,74.35
2022-11-05T01:00:41.475Z,79.28
2022-11-05T01:03:11.442Z,81.45
2022-11-05T01:05:40.951Z,90.03
2022-11-05T01:08:08.858Z,83.10
2022-11-05T01:10:40.292Z,93.47
2022-11-05T01:13:12.533Z,96.85
2022-11-05T01:15:40.175Z,102.57
2022-11-05T01:18:06.790Z,99.40
2022-11-05T01:20:33.524Z,91.15
2022-11-05T01:23:00.193Z,100.35
2022-11-05T01:25:26.845Z,109.15
2022-11-05T01:31:59.953Z,116.63
2022-11-05T01:34:26.633Z,124.57
2022-11-05T01:36:53.417Z,117.45
2022-11-05T01:39:20.079Z,128.13
2022-11-05T01:41:46.686Z,109.43
2022-11-05T01:44:51.347Z,121.25
2022-11-05T01:47:53.792Z,122.00
2022-11-05T01:50:40.364Z,115.72
2022-11-05T01:53:17.137Z,124.10
2022-11-05T01:56:07.098Z,110.80
2022-11-05T01:58:43.499Z,108.53
2022-11-05T02:01:11.065Z,108.93
2022-11-05T02:03:38.458Z,101.55
2022-11-05T02:06:09.182Z,103.50
2022-11-05T02:09:08.269Z,99.00
2022-11-05T02:11:35.073Z,98.30
2022-11-05T02:14:02.110Z,91.75
2022-11-05T02:16:37.901Z,108.53
2022-11-05T02:19:42.526Z,83.95
2022-11-05T02:22:24.600Z,96.57
2022-11-05T02:25:02.124Z,100.10
2022-11-05T02:27:56.435Z,106.35
2022-11-05T02:30:50.613Z,98.50
2022-11-05T02:33:46.247Z,101.82
2022-11-05T02:36:28.478Z,99.38
2022-11-05T02:39:27.434Z,113.85
2022-11-05T02:42:19.367Z,109.47
2022-11-05T02:44:54.829Z,102.40
2022-11-05T02:47:47.577Z,100.30
2022-11-05T02:50:33.552Z,89.38
2022-11-05T02:53:11.918Z,102.65
2022-11-05T02:55:49.372Z,76.88
2022-11-05T02:58:16.065Z,86.38
2022-11-05T03:00:50.457Z,93.75
2022-11-05T03:03:23.545Z,86.95
2022-11-05T03:06:19.110Z,87.60
2022-11-05T03:09:15.942Z,98.50
2022-11-05T03:12:05.485Z,98.70
2022-11-05T03:14:51.049Z,110.40
2022-11-05T03:17:37.802Z,106.88
2022-11-05T03:20:23.485Z,116.28
2022-11-05T03:22:55.942Z,108.45
2022-11-05T03:25:25.448Z,116.32
2022-11-05T03:28:00.411Z,107.50
2022-11-05T03:33:01.792Z,111.22
2022-11-05T03:35:37.449Z,115.65
2022-11-05T03:38:11.868Z,112.03
2022-11-05T03:40:40.837Z,112.82
2022-11-05T03:43:09.116Z,118.07
2022-11-05T03:45:43.892Z,102.85
2022-11-05T03:48:12.492Z,96.00
2022-11-05T03:50:56.413Z,103.40
2022-11-05T03:53:27.041Z,82.70
2022-11-05T03:56:00.633Z,96.53
2022-11-05T03:58:28.886Z,89.90
2022-11-05T04:00:55.769Z,87.40
2022-11-05T04:03:22.362Z,92.57
2022-11-05T04:06:09.466Z,95.57
2022-11-05T04:08:55.278Z,89.13
2022-11-05T04:11:40.265Z,92.45
2022-11-05T04:14:06.941Z,81.80
2022-11-05T04:16:56.520Z,81.82
2022-11-05T04:19:41.688Z,88.65
2022-11-05T04:24:53.859Z,105.07
2022-11-05T04:27:20.504Z,104.28
2022-11-05T04:30:05.671Z,111.95
2022-11-05T04:32:32.337Z,114.95
2022-11-05T04:34:59.082Z,114.30
2022-11-05T04:37:25.688Z,113.47
2022-11-05T04:39:52.315Z,118.90
2022-11-05T04:42:19.414Z,113.70
2022-11-05T04:44:46.001Z,104.80
2022-11-05T04:47:12.632Z,115.10
2022-11-05T04:49:39.253Z,111.82
2022-11-05T04:52:06.109Z,115.43
2022-11-05T04:54:32.734Z,117.20
2022-11-05T04:56:59.375Z,128.55
2022-11-05T04:59:26.252Z,114.55
2022-11-05T05:01:53.306Z,111.93
2022-11-05T05:04:20.580Z,98.30
2022-11-05T05:06:47.343Z,120.85
2022-11-05T05:09:14.107Z,118.28
2022-11-05T05:11:41.042Z,136.45
2022-11-05T05:14:08.741Z,131.60
2022-11-05T05:16:35.342Z,144.13
2022-11-05T05:19:01.990Z,151.57
2022-11-05T05:21:41.000Z,166.13
2022-11-05T05:24:25.665Z,173.15
2022-11-05T05:26:52.237Z,192.35
2022-11-05T05:29:19.229Z,179.13
2022-11-05T05:31:47.175Z,192.50
2022-11-05T05:34:14.757Z,198.25
2022-11-05T05:36:41.676Z,191.90
2022-11-05T05:39:10.867Z,202.70
2022-11-05T05:41:37.632Z,214.00
2022-11-05T05:44:05.787Z,181.05
2022-11-05T05:46:32.386Z,193.85
2022-11-05T05:48:58.968Z,207.65
2022-11-05T05:51:25.559Z,203.80
2022-11-05T05:53:53.628Z,189.13
2022-11-05T05:56:20.972Z,188.43
2022-11-05T05:58:49.320Z,189.77
2022-11-05T06:01:19.559Z,176.20
2022-11-05T06:03:48.187Z,193.80
2022-11-05T06:06:15.841Z,199.10
2022-11-05T06:08:45.396Z,194.85
2022-11-05T06:11:12.134Z,191.32
2022-11-05T06:13:38.751Z,201.73
2022-11-05T06:16:07.738Z,183.63
2022-11-05T06:18:34.937Z,167.90
2022-11-05T06:21:06.739Z,161.30
2022-11-05T06:23:34.802Z,146.93
2022-11-05T06:26:02.549Z,159.95
2022-11-05T06:28:29.599Z,167.55
2022-11-05T06:30:59.983Z,177.45
2022-11-05T06:33:26.994Z,172.77
2022-11-05T06:35:54.237Z,161.43
2022-11-05T06:38:21.135Z,179.90
2022-11-05T06:40:47.729Z,165.57
2022-11-05T06:43:14.653Z,164.25
2022-11-05T06:45:41.733Z,158.35
2022-11-05T06:48:08.741Z,150.10
2022-11-05T06:50:35.322Z,160.98
2022-11-05T06:53:03.897Z,148.75
2022-11-05T06:55:31.665Z,147.70
2022-11-05T06:57:58.390Z,145.30
2022-11-05T07:00:25.365Z,138.93
2022-11-05T07:02:52.041Z,137.38
2022-11-05T07:05:19.885Z,145.18
2022-11-05T07:07:46.604Z,121.63
2022-11-05T07:10:18.324Z,118.75
2022-11-05T07:12:45.020Z,119.80
2022-11-05T07:15:12.732Z,102.65
2022-11-05T07:17:40.072Z,107.80
2022-11-05T07:20:08.127Z,101.43
2022-11-05T07:22:35.675Z,119.70
2022-11-05T07:25:02.394Z,98.57
2022-11-05T07:27:29.070Z,106.10
2022-11-05T07:29:55.649Z,96.93
2022-11-05T07:32:22.532Z,97.80
2022-11-05T07:34:49.145Z,103.80
2022-11-05T07:37:16.689Z,89.47
2022-11-05T07:39:43.594Z,88.03
2022-11-05T07:42:13.829Z,84.28
2022-11-05T07:44:41.204Z,80.13
2022-11-05T07:47:07.896Z,75.13
2022-11-05T07:49:34.495Z,63.22
2022-11-05T07:52:01.170Z,64.40
2022-11-05T07:54:27.954Z,52.10
2022-11-05T07:56:54.551Z,72.30
2022-11-05T07:59:21.147Z,52.50
2022-11-05T08:01:47.938Z,52.22
2022-11-05T08:04:14.775Z,71.70
2022-11-05T08:06:41.361Z,50.42
2022-11-05T08:09:09.031Z,42.05
2022-11-05T08:11:37.964Z,43.50
2022-11-05T08:14:04.640Z,53.67
2022-11-05T08:16:31.252Z,54.88
2022-11-05T08:18:58.173Z,54.85
2022-11-05T08:21:24.958Z,57.22
2022-11-05T08:23:51.608Z,54.72
2022-11-05T08:26:20.543Z,53.92
2022-11-05T08:28:48.639Z,48.95
2022-11-05T08:31:17.953Z,47.10
2022-11-05T08:33:44.580Z,54.20
2022-11-05T08:36:11.242Z,40.65
2022-11-05T08:38:37.822Z,53.25
2022-11-05T08:41:04.832Z,47.78
2022-11-05T08:43:31.461Z,46.08
2022-11-05T08:46:00.607Z,47.13
2022-11-05T08:48:27.473Z,44.78
2022-11-05T08:50:54.700Z,45.60
2022-11-05T08:53:21.400Z,42.50
2022-11-05T08:55:49.925Z,47.58
2022-11-05T08:58:17.314Z,40.15
2022-11-05T09:00:46.163Z,38.90
2022-11-05T09:03:14.364Z,40.25
2022-11-05T09:05:42.782Z,33.05
2022-11-05T09:08:13.068Z,41.40
2022-11-05T09:10:41.260Z,36.55
2022-11-05T09:13:11.826Z,35.58
2022-11-05T09:15:45.994Z,33.38
2022-11-05T09:18:14.765Z,42.92
2022-11-05T09:20:41.687Z,34.60
2022-11-05T09:23:10.052Z,36.17
2022-11-05T09:25:36.858Z,30.23
2022-11-05T09:28:16.513Z,37.40
2022-11-05T09:30:52.422Z,37.88
2022-11-05T09:35:47.053Z,28.33
2022-11-05T09:38:14.397Z,34.25
2022-11-05T09:40:52.538Z,31.98
2022-11-05T09:43:26.069Z,34.78
2022-11-05T09:45:59.768Z,33.05
2022-11-05T09:48:30.358Z,31.80
2022-11-05T09:50:58.171Z,29.02
2022-11-05T09:53:25.288Z,32.20
2022-11-05T09:55:56.311Z,31.98
2022-11-05T09:58:32.126Z,42.88
2022-11-05T10:00:59.078Z,29.42
2022-11-05T10:03:29.296Z,29.70
2022-11-05T10:06:03.378Z,29.35
2022-11-05T10:08:34.420Z,28.98
2022-11-05T10:11:12.705Z,36.60
2022-11-05T10:13:47.657Z,32.58
2022-11-05T10:19:27.298Z,30.48
2022-11-05T10:22:10.238Z,31.45
2022-11-05T10:24:39.319Z,28.48
2022-11-05T10:27:06.492Z,33.92
2022-11-05T10:29:35.419Z,31.50
2022-11-05T10:32:05.683Z,32.78
2022-11-05T10:34:36.662Z,35.25
2022-11-05T10:37:03.900Z,31.60
2022-11-05T10:39:33.216Z,29.95
2022-11-05T10:42:55.923Z,30.55
2022-11-05T10:45:40.627Z,31.70
2022-11-05T10:48:29.314Z,28.60
2022-11-05T10:50:57.234Z,29.60
2022-11-05T10:53:29.861Z,32.65
2022-11-05T10:56:01.384Z,31.88
2022-11-05T10:58:30.665Z,31.25
2022-11-05T11:00:57.408Z,31.40
2022-11-05T11:03:42.123Z,35.80
2022-11-05T11:06:27.937Z,29.73
2022-11-05T11:08:57.669Z,30.38
2022-11-05T11:11:35.847Z,30.48
2022-11-05T11:14:05.974Z,31.73
2022-11-05T11:16:39.284Z,30.75
2022-11-05T11:19:24.664Z,31.02
2022-11-05T11:24:44.036Z,34.10
2022-11-05T11:27:15.625Z,28.33
2022-11-05T11:29:49.585Z,30.98
2022-11-05T11:32:19.463Z,31.92
2022-11-05T11:34:52.936Z,30.17
2022-11-05T11:37:29.760Z,29.98
2022-11-05T11:40:03.317Z,32.83
2022-11-05T11:42:33.757Z,31.23
2022-11-05T11:45:06.247Z,29.27
2022-11-05T11:47:33.715Z,28.85
2022-11-05T11:50:01.943Z,29.90
2022-11-05T11:52:34.345Z,30.35
2022-11-05T11:55:27.722Z,27.27
2022-11-05T11:58:06.715Z,28.35
2022-11-05T12:00:42.626Z,27.55
2022-11-05T12:03:14.084Z,27.85
2022-11-05T12:05:43.847Z,25.27
2022-11-05T12:08:24.196Z,26.80
2022-11-05T12:11:12.381Z,25.58
2022-11-05T12:13:57.884Z,25.00
2022-11-05T12:19:29.469Z,25.17
2022-11-05T12:22:17.628Z,24.60
2022-11-05T12:24:59.780Z,25.33
2022-11-05T12:27:56.186Z,23.95
2022-11-05T12:30:23.249Z,25.42
2022-11-05T12:32:53.107Z,24.98
2022-11-05T12:35:47.058Z,22.45
2022-11-05T12:38:33.126Z,25.83
2022-11-05T12:41:11.934Z,25.25
2022-11-05T12:43:53.430Z,25.25
2022-11-05T12:46:34.938Z,23.42
2022-11-05T12:49:38.844Z,24.63
2022-11-05T12:52:33.766Z,23.27
2022-11-05T12:55:14.802Z,24.43
2022-11-05T12:57:45.380Z,25.08
2022-11-05T13:00:20.576Z,23.45
2022-11-05T13:03:19.463Z,24.65
2022-11-05T13:06:14.855Z,25.00
2022-11-05T13:09:04.229Z,23.58
2022-11-05T13:11:58.901Z,23.95
2022-11-05T13:14:47.290Z,23.02
2022-11-05T13:17:28.028Z,24.30
2022-11-05T13:20:17.326Z,23.65
2022-11-05T13:22:47.800Z,25.08
2022-11-05T13:25:31.401Z,25.15
2022-11-05T13:28:16.043Z,24.48
2022-11-05T13:30:46.412Z,25.05
2022-11-05T13:33:16.099Z,23.27
2022-11-05T13:36:21.321Z,25.17
2022-11-05T13:39:02.449Z,23.80
2022-11-05T13:41:50.589Z,22.92
2022-11-05T13:44:26.081Z,24.73
2022-11-05T13:47:04.887Z,24.60
2022-11-05T13:49:40.690Z,23.10
2022-11-05T13:52:38.824Z,24.40
2022-11-05T13:55:50.592Z,24.40
2022-11-05T13:58:56.718Z,24.40
2022-11-05T14:01:49.581Z,23.70
2022-11-05T14:04:41.014Z,25.08
2022-11-05T14:07:09.553Z,36.97
2022-11-05T14:09:37.750Z,34.33
2022-11-05T14:12:07.183Z,25.67
2022-11-05T14:14:46.636Z,25.05
2022-11-05T14:17:17.177Z,25.27
2022-11-05T14:20:02.695Z,26.10
2022-11-05T14:22:32.438Z,24.92
2022-11-05T14:25:19.325Z,25.35
2022-11-05T14:27:48.909Z,26.70
2022-11-05T14:30:44.949Z,26.25
2022-11-05T14:33:14.857Z,26.23
2022-11-05T14:35:41.867Z,27.35
2022-11-05T14:38:23.593Z,26.08
2022-11-05T14:41:00.035Z,24.35
2022-11-05T14:43:28.996Z,25.08
2022-11-05T14:45:58.218Z,25.10
2022-11-05T14:48:37.386Z,26.02
2022-11-05T14:51:25.949Z,28.25
2022-11-05T14:54:06.453Z,26.02
2022-11-05T14:56:57.411Z,25.67
2022-11-05T14:59:24.039Z,27.35
2022-11-05T15:02:04.686Z,26.67
2022-11-05T15:04:35.745Z,27.08
2022-11-05T15:07:02.375Z,27.83
2022-11-05T15:09:44.645Z,29.05
2022-11-05T15:12:46.016Z,29.08
2022-11-05T15:15:30.161Z,25.95
2022-11-05T15:18:28.025Z,26.17
2022-11-05T15:21:00.849Z,26.65
2022-11-05T15:23:36.597Z,27.90
2022-11-05T15:26:22.101Z,28.38
2022-11-05T15:28:56.154Z,30.95
2022-11-05T15:31:45.224Z,33.27
2022-11-05T15:34:32.898Z,28.58
2022-11-05T15:37:26.521Z,28.50
2022-11-05T15:39:55.277Z,34.75
2022-11-05T15:42:23.414Z,33.35
2022-11-05T15:44:54.961Z,33.03
2022-11-05T15:47:31.565Z,30.48
2022-11-05T15:50:05.672Z,31.25
2022-11-05T15:52:41.931Z,29.30
2022-11-05T15:55:10.261Z,28.13
2022-11-05T15:57:40.341Z,29.80
2022-11-05T16:00:25.343Z,28.70
2022-11-05T16:03:17.956Z,28.67
2022-11-05T16:05:47.170Z,29.25
2022-11-05T16:08:31.942Z,29.92
2022-11-05T16:11:00.572Z,50.20
2022-11-05T16:13:35.848Z,42.65
2022-11-05T16:16:23.465Z,34.30
2022-11-05T16:18:50.275Z,33.45
2022-11-05T16:21:19.450Z,32.63
2022-11-05T16:23:49.164Z,35.03
2022-11-05T16:27:03.858Z,32.42
2022-11-05T16:29:34.967Z,31.75
2022-11-05T16:32:05.086Z,34.63
2022-11-05T16:34:41.176Z,32.63
2022-11-05T16:37:12.187Z,29.88
2022-11-05T16:39:38.909Z,27.35
2022-11-05T16:42:38.576Z,26.52
2022-11-05T16:45:06.134Z,26.98
2022-11-05T16:47:32.751Z,27.17
2022-11-05T16:49:59.612Z,26.25
2022-11-05T16:52:26.353Z,31.27
2022-11-05T16:54:53.063Z,30.67
2022-11-05T16:57:28.407Z,30.40
2022-11-05T16:59:56.818Z,29.38
2022-11-05T17:02:23.513Z,30.95
2022-11-05T17:04:50.645Z,30.38
2022-11-05T17:07:17.296Z,29.55
2022-11-05T17:09:44.301Z,28.50
2022-11-05T17:12:11.789Z,29.65
2022-11-05T17:14:38.697Z,26.98
2022-11-05T17:17:05.864Z,26.80
2022-11-05T17:19:32.533Z,30.77
2022-11-05T17:21:59.143Z,35.00
2022-11-05T17:24:25.742Z,31.95
2022-11-05T17:26:52.330Z,32.25
2022-11-05T17:29:19.006Z,29.83
2022-11-05T17:31:45.654Z,28.23
2022-11-05T17:34:12.245Z,31.88
2022-11-05T17:36:38.848Z,33.30
2022-11-05T17:39:05.520Z,32.53
2022-11-05T17:41:32.833Z,28.35
2022-11-05T17:44:00.211Z,31.20
2022-11-05T17:46:26.933Z,28.50
2022-11-05T17:48:53.535Z,29.58
2022-11-05T17:51:20.533Z,31.98
2022-11-05T17:53:48.943Z,32.25
2022-11-05T17:56:28.952Z,30.48
2022-11-05T17:59:00.415Z,32.53
2022-11-05T18:01:33.384Z,31.90
2022-11-05T18:04:05.371Z,31.05
2022-11-05T18:06:35.729Z,30.23
2022-11-05T18:09:02.802Z,30.25
2022-11-05T18:11:29.464Z,33.40
2022-11-05T18:13:56.743Z,32.85
2022-11-05T18:16:23.476Z,32.90
2022-11-05T18:18:50.241Z,31.83
2022-11-05T18:21:16.969Z,34.15
2022-11-05T18:23:43.640Z,40.65
2022-11-05T18:26:11.933Z,42.28
2022-11-05T18:28:38.996Z,36.28
2022-11-05T18:31:16.761Z,37.33
2022-11-05T18:33:44.577Z,36.92
2022-11-05T18:36:25.337Z,37.22
2022-11-05T18:38:52.296Z,36.78
2022-11-05T18:41:20.457Z,36.08
2022-11-05T18:43:47.602Z,39.30
2022-11-05T18:46:43.070Z,126.43
2022-11-05T18:49:02.510Z,39.15
2022-11-05T18:51:29.334Z,35.05
2022-11-05T18:53:56.228Z,35.63
2022-11-05T18:56:23.338Z,33.45
2022-11-05T18:58:50.657Z,33.03
2022-11-05T19:01:20.353Z,38.22
2022-11-05T19:03:49.046Z,31.38
2022-11-05T19:06:15.655Z,31.48
2022-11-05T19:08:42.421Z,31.52
2022-11-05T19:11:12.113Z,31.33
2022-11-05T19:13:39.295Z,31.13
2022-11-05T19:16:11.446Z,29.48
2022-11-05T19:18:38.203Z,30.38
2022-11-05T19:21:14.302Z,29.33
2022-11-05T19:23:41.176Z,30.90
2022-11-05T19:26:34.074Z,29.98
2022-11-05T19:29:02.161Z,28.98
2022-11-05T19:31:30.061Z,29.92
2022-11-05T19:33:56.839Z,29.52
2022-11-05T19:36:25.135Z,28.85
2022-11-05T19:39:02.843Z,29.08
2022-11-05T19:41:29.769Z,27.02
2022-11-05T19:43:58.177Z,28.05
2022-11-05T19:46:25.599Z,27.08
2022-11-05T19:48:52.299Z,26.67
2022-11-05T19:51:22.214Z,26.15
2022-11-05T19:53:51.210Z,27.27
2022-11-05T19:56:20.310Z,24.83
2022-11-05T19:58:47.942Z,25.63
2022-11-05T20:01:15.806Z,25.42
2022-11-05T20:03:43.141Z,27.33
2022-11-05T20:06:16.262Z,28.92
2022-11-05T20:09:07.220Z,28.67
2022-11-05T20:11:31.232Z,27.02
2022-11-05T20:13:57.996Z,29.65
2022-11-05T20:16:29.858Z,28.17
2022-11-05T20:18:57.601Z,28.08
2022-11-05T20:21:24.206Z,34.95
2022-11-05T20:23:51.374Z,29.05
2022-11-05T20:26:18.007Z,23.67
2022-11-05T20:28:45.458Z,24.20
2022-11-05T20:31:15.328Z,23.88
2022-11-05T20:33:42.800Z,24.35
2022-11-05T20:36:13.489Z,23.42
2022-11-05T20:38:40.523Z,26.13
2022-11-05T20:41:09.630Z,23.70
2022-11-05T20:43:37.751Z,24.88
2022-11-05T20:46:05.025Z,24.70
2022-11-05T20:48:33.382Z,23.30
2022-11-05T20:51:04.223Z,24.08
2022-11-05T20:53:31.461Z,23.77
2022-11-05T20:55:58.095Z,22.20
2022-11-05T20:58:24.754Z,22.52
2022-11-05T21:00:56.469Z,21.85
2022-11-05T21:03:23.888Z,21.25
2022-11-05T21:05:54.337Z,21.55
2022-11-05T21:08:22.306Z,22.63
2022-11-05T21:10:51.335Z,22.40
2022-11-05T21:13:18.643Z,23.20
2022-11-05T21:15:53.981Z,23.40
2022-11-05T21:18:23.913Z,24.63
2022-11-05T21:20:51.022Z,24.52
2022-11-05T21:23:18.385Z,23.10
2022-11-05T21:25:45.566Z,23.60
2022-11-05T21:28:13.800Z,22.55
2022-11-05T21:30:44.819Z,23.45
2022-11-05T21:33:12.616Z,24.48
2022-11-05T21:35:44.371Z,23.92
2022-11-05T21:38:13.265Z,22.92
2022-11-05T21:40:40.605Z,24.77
2022-11-05T21:43:07.965Z,24.05
2022-11-05T21:45:37.358Z,23.10
2022-11-05T21:48:04.152Z,24.20
2022-11-05T21:50:50.083Z,23.65
2022-11-05T21:53:36.307Z,23.08
2022-11-05T21:56:42.037Z,23.73
2022-11-05T21:59:33.244Z,23.90
2022-11-05T22:02:03.023Z,24.95
2022-11-05T22:04:32.466Z,26.25
2022-11-05T22:06:59.692Z,27.02
2022-11-05T22:09:26.872Z,25.23
2022-11-05T22:11:53.998Z,25.50
2022-11-05T22:14:21.077Z,25.83
2022-11-05T22:16:48.013Z,25.92
2022-11-05T22:19:14.844Z,27.05
2022-11-05T22:21:42.053Z,24.70
2022-11-05T22:24:09.286Z,26.10
2022-11-05T22:26:37.498Z,26.30
2022-11-05T22:29:05.148Z,27.15
2022-11-05T22:31:36.019Z,27.52
2022-11-05T22:34:04.517Z,28.70
2022-11-05T22:36:31.743Z,26.25
2022-11-05T22:38:58.530Z,27.02
2022-11-05T22:41:25.438Z,24.73
2022-11-05T22:43:52.107Z,25.13
2022-11-05T22:46:22.177Z,27.52
2022-11-05T22:48:49.384Z,24.63
2022-11-05T22:51:21.388Z,24.25
2022-11-05T22:53:48.800Z,23.92
2022-11-05T22:56:18.068Z,23.75
2022-11-05T22:58:45.364Z,23.13
2022-11-05T23:01:12.756Z,23.67
2022-11-05T23:03:41.610Z,25.02
2022-11-05T23:06:36.079Z,23.55
2022-11-05T23:09:29.913Z,23.98
2022-11-05T23:11:57.272Z,25.02
2022-11-05T23:14:24.548Z,23.90
2022-11-05T23:17:09.678Z,23.30
2022-11-05T23:19:54.941Z,25.50
2022-11-05T23:22:43.872Z,25.02
2022-11-05T23:25:29.792Z,24.67
2022-11-05T23:27:57.016Z,25.50
2022-11-05T23:30:26.041Z,25.35
2022-11-05T23:32:55.226Z,27.60
2022-11-05T23:35:41.789Z,27.00
2022-11-05T23:38:27.267Z,28.52
2022-11-05T23:41:12.457Z,26.35
2022-11-05T23:43:57.595Z,22.98
2022-11-05T23:46:42.839Z,23.48
2022-11-05T23:49:09.467Z,23.63
2022-11-05T23:51:36.039Z,23.80
2022-11-05T23:54:02.696Z,23.15
2022-11-05T23:56:31.139Z,23.17
2022-11-05T23:58:58.058Z,24.25
